sensor_id;sensor_type;location;lat;lon;timestamp;pressure;altitude;pressure_sealevel;temperature;humidity
7182;BME280;3632;42.724;23.298;2023-03-13T00:01:45;95117.00;;;0.61;55.22
7182;BME280;3632;42.724;23.298;2023-03-13T00:04:14;95656.00;;;3.98;55.66
7182;BME280;3632;42.724;23.298;2023-03-13T00:06:40;95581.25;;;3.61;55.36
7182;BME280;3632;42.724;23.298;2023-03-13T00:09:09;95644.50;;;3.92;55.40
7182;BME280;3632;42.724;23.298;2023-03-13T00:11:36;95451.00;;;1.76;55.26
7182;BME280;3632;42.724;23.298;2023-03-13T00:14:04;95648.81;;;3.90;55.99
7182;BME280;3632;42.724;23.298;2023-03-13T00:16:31;95652.78;;;3.40;55.42
7182;BME280;3632;42.724;23.298;2023-03-13T00:19:00;95587.00;;;3.46;55.51
7182;BME280;3632;42.724;23.298;2023-03-13T00:21:28;95372.63;;;2.07;55.84
7182;BME280;3632;42.724;23.298;2023-03-13T00:23:57;95673.78;;;3.78;55.54
7182;BME280;3632;42.724;23.298;2023-03-13T00:26:25;95745.34;;;2.96;56.33
7182;BME280;3632;42.724;23.298;2023-03-13T00:28:52;95533.19;;;2.92;55.97
7182;BME280;3632;42.724;23.298;2023-03-13T00:31:21;95677.50;;;3.69;56.61
7182;BME280;3632;42.724;23.298;2023-03-13T00:33:49;95676.91;;;3.64;56.20
7182;BME280;3632;42.724;23.298;2023-03-13T00:36:18;95667.47;;;3.49;57.92
7182;BME280;3632;42.724;23.298;2023-03-13T00:38:47;95461.34;;;2.29;57.13
7182;BME280;3632;42.724;23.298;2023-03-13T00:41:15;95674.03;;;3.53;56.80
7182;BME280;3632;42.724;23.298;2023-03-13T00:43:43;95599.66;;;3.07;57.08
7182;BME280;3632;42.724;23.298;2023-03-13T00:46:12;95665.59;;;3.54;57.17
7182;BME280;3632;42.724;23.298;2023-03-13T00:48:39;95670.47;;;3.57;57.41
7182;BME280;3632;42.724;23.298;2023-03-13T00:51:06;95671.31;;;3.57;56.87
7182;BME280;3632;42.724;23.298;2023-03-13T00:53:34;95663.06;;;3.54;57.48
7182;BME280;3632;42.724;23.298;2023-03-13T00:56:04;95666.56;;;3.51;57.27
7182;BME280;3632;42.724;23.298;2023-03-13T00:58:33;95662.34;;;3.52;57.26
7182;BME280;3632;42.724;23.298;2023-03-13T01:01:08;95480.06;;;1.41;57.07
7182;BME280;3632;42.724;23.298;2023-03-13T01:03:37;95666.06;;;3.43;57.58
7182;BME280;3632;42.724;23.298;2023-03-13T01:06:05;95669.38;;;3.44;57.29
7182;BME280;3632;42.724;23.298;2023-03-13T01:08:33;95661.09;;;3.42;57.10
7182;BME280;3632;42.724;23.298;2023-03-13T01:11:04;95656.78;;;3.44;57.29
7182;BME280;3632;42.724;23.298;2023-03-13T01:13:31;95694.56;;;3.44;57.32
7182;BME280;3632;42.724;23.298;2023-03-13T01:16:01;95662.44;;;3.49;57.78
7182;BME280;3632;42.724;23.298;2023-03-13T01:18:28;95001.41;;;-0.52;56.67
7182;BME280;3632;42.724;23.298;2023-03-13T01:20:55;95690.72;;;3.55;56.73
7182;BME280;3632;42.724;23.298;2023-03-13T01:23:22;95662.91;;;3.57;57.47
7182;BME280;3632;42.724;23.298;2023-03-13T01:25:49;95272.22;;;0.03;56.52
7182;BME280;3632;42.724;23.298;2023-03-13T01:28:17;95506.00;;;2.43;57.03
7182;BME280;3632;42.724;23.298;2023-03-13T01:30:44;95672.72;;;3.44;57.50
7182;BME280;3632;42.724;23.298;2023-03-13T01:33:11;95672.53;;;3.49;57.27
7182;BME280;3632;42.724;23.298;2023-03-13T01:35:37;95673.19;;;3.52;57.53
7182;BME280;3632;42.724;23.298;2023-03-13T01:38:04;95829.44;;;3.52;57.46
7182;BME280;3632;42.724;23.298;2023-03-13T01:40:38;95683.38;;;3.51;56.93
7182;BME280;3632;42.724;23.298;2023-03-13T01:43:15;95681.09;;;3.45;56.54
7182;BME280;3632;42.724;23.298;2023-03-13T01:45:57;95681.38;;;3.39;57.02
7182;BME280;3632;42.724;23.298;2023-03-13T01:48:28;95681.94;;;3.27;57.29
7182;BME280;3632;42.724;23.298;2023-03-13T01:50:59;95678.25;;;3.34;57.69
7182;BME280;3632;42.724;23.298;2023-03-13T01:53:28;95679.41;;;3.27;58.01
7182;BME280;3632;42.724;23.298;2023-03-13T01:55:58;95679.13;;;3.14;58.17
7182;BME280;3632;42.724;23.298;2023-03-13T01:58:27;95671.50;;;2.55;60.44
7182;BME280;3632;42.724;23.298;2023-03-13T02:00:57;95680.78;;;2.74;62.04
7182;BME280;3632;42.724;23.298;2023-03-13T02:03:25;95570.81;;;1.96;62.49
7182;BME280;3632;42.724;23.298;2023-03-13T02:05:54;95106.00;;;-1.76;63.77
7182;BME280;3632;42.724;23.298;2023-03-13T02:08:25;95602.81;;;1.92;63.96
7182;BME280;3632;42.724;23.298;2023-03-13T02:11:09;95613.84;;;1.66;66.21
7182;BME280;3632;42.724;23.298;2023-03-13T02:13:38;95693.97;;;2.17;66.27
7182;BME280;3632;42.724;23.298;2023-03-13T02:16:06;95697.13;;;2.22;66.42
7182;BME280;3632;42.724;23.298;2023-03-13T02:18:35;95123.41;;;-1.25;65.83
7182;BME280;3632;42.724;23.298;2023-03-13T02:21:09;95759.13;;;2.23;66.86
7182;BME280;3632;42.724;23.298;2023-03-13T02:23:43;95730.50;;;2.48;66.84
7182;BME280;3632;42.724;23.298;2023-03-13T02:26:16;95710.03;;;2.57;66.73
7182;BME280;3632;42.724;23.298;2023-03-13T02:28:43;95707.19;;;2.64;65.24
7182;BME280;3632;42.724;23.298;2023-03-13T02:31:10;95624.31;;;1.11;65.00
7182;BME280;3632;42.724;23.298;2023-03-13T02:33:39;95719.44;;;2.52;64.98
7182;BME280;3632;42.724;23.298;2023-03-13T02:36:07;95544.25;;;1.48;64.10
7182;BME280;3632;42.724;23.298;2023-03-13T02:38:39;94856.06;;;-2.64;63.86
7182;BME280;3632;42.724;23.298;2023-03-13T02:41:08;95667.00;;;2.21;64.84
7182;BME280;3632;42.724;23.298;2023-03-13T02:43:37;95740.22;;;2.35;65.88
7182;BME280;3632;42.724;23.298;2023-03-13T02:46:07;95748.06;;;2.49;65.37
7182;BME280;3632;42.724;23.298;2023-03-13T02:48:36;95750.41;;;2.54;65.00
7182;BME280;3632;42.724;23.298;2023-03-13T02:51:09;95661.00;;;1.60;66.41
7182;BME280;3632;42.724;23.298;2023-03-13T02:53:38;95756.50;;;2.26;66.77
7182;BME280;3632;42.724;23.298;2023-03-13T02:56:06;95756.16;;;2.36;66.05
7182;BME280;3632;42.724;23.298;2023-03-13T02:58:41;95757.84;;;2.13;66.31
7182;BME280;3632;42.724;23.298;2023-03-13T03:01:08;95756.94;;;1.93;67.78
7182;BME280;3632;42.724;23.298;2023-03-13T03:03:35;95539.03;;;0.39;69.16
7182;BME280;3632;42.724;23.298;2023-03-13T03:06:03;95786.06;;;1.75;69.63
7182;BME280;3632;42.724;23.298;2023-03-13T03:08:30;95757.69;;;1.73;69.88
7182;BME280;3632;42.724;23.298;2023-03-13T03:10:58;95763.88;;;1.63;70.75
7182;BME280;3632;42.724;23.298;2023-03-13T03:13:24;95704.66;;;1.34;69.48
7182;BME280;3632;42.724;23.298;2023-03-13T03:15:53;95545.09;;;0.34;68.56
7182;BME280;3632;42.724;23.298;2023-03-13T03:18:19;95681.03;;;1.40;67.80
7182;BME280;3632;42.724;23.298;2023-03-13T03:20:46;95865.19;;;1.88;67.27
7182;BME280;3632;42.724;23.298;2023-03-13T03:23:13;95786.47;;;2.09;66.22
7182;BME280;3632;42.724;23.298;2023-03-13T03:25:39;95725.00;;;1.73;66.34
7182;BME280;3632;42.724;23.298;2023-03-13T03:28:06;95794.50;;;2.19;66.44
7182;BME280;3632;42.724;23.298;2023-03-13T03:30:33;95648.16;;;1.22;66.86
7182;BME280;3632;42.724;23.298;2023-03-13T03:33:02;95790.09;;;1.79;68.06
7182;BME280;3632;42.724;23.298;2023-03-13T03:35:29;95875.81;;;1.47;68.72
7182;BME280;3632;42.724;23.298;2023-03-13T03:37:56;95803.13;;;1.42;70.33
7182;BME280;3632;42.724;23.298;2023-03-13T03:40:23;95804.88;;;1.40;71.06
7182;BME280;3632;42.724;23.298;2023-03-13T03:42:49;95563.72;;;0.02;70.18
7182;BME280;3632;42.724;23.298;2023-03-13T03:45:16;95826.50;;;1.69;69.68
7182;BME280;3632;42.724;23.298;2023-03-13T03:47:43;95588.59;;;0.33;68.79
7182;BME280;3632;42.724;23.298;2023-03-13T03:50:11;95875.25;;;1.63;69.28
7182;BME280;3632;42.724;23.298;2023-03-13T03:52:38;95835.25;;;1.57;69.95
7182;BME280;3632;42.724;23.298;2023-03-13T03:55:05;95657.09;;;0.33;70.26
7182;BME280;3632;42.724;23.298;2023-03-13T03:57:32;95843.38;;;1.41;70.60
7182;BME280;3632;42.724;23.298;2023-03-13T03:59:59;95629.84;;;-0.04;70.43
7182;BME280;3632;42.724;23.298;2023-03-13T04:02:26;95804.81;;;1.18;70.67
7182;BME280;3632;42.724;23.298;2023-03-13T04:04:52;95839.78;;;1.48;70.75
7182;BME280;3632;42.724;23.298;2023-03-13T04:07:20;95848.63;;;1.58;71.04
7182;BME280;3632;42.724;23.298;2023-03-13T04:09:47;95850.84;;;1.67;69.87
7182;BME280;3632;42.724;23.298;2023-03-13T04:12:14;95854.06;;;1.70;70.00
7182;BME280;3632;42.724;23.298;2023-03-13T04:14:41;95812.31;;;1.43;68.84
7182;BME280;3632;42.724;23.298;2023-03-13T04:17:07;95156.25;;;-3.89;68.12
7182;BME280;3632;42.724;23.298;2023-03-13T04:19:34;95672.06;;;-0.75;68.84
7182;BME280;3632;42.724;23.298;2023-03-13T04:22:01;95873.81;;;1.81;68.09
7182;BME280;3632;42.724;23.298;2023-03-13T04:24:29;95770.94;;;1.05;69.28
7182;BME280;3632;42.724;23.298;2023-03-13T04:26:56;95865.50;;;1.54;69.96
7182;BME280;3632;42.724;23.298;2023-03-13T04:29:23;95683.44;;;0.19;70.19
7182;BME280;3632;42.724;23.298;2023-03-13T04:31:50;95879.25;;;1.69;68.51
7182;BME280;3632;42.724;23.298;2023-03-13T04:34:17;95805.69;;;1.16;69.33
7182;BME280;3632;42.724;23.298;2023-03-13T04:36:44;95868.28;;;1.47;70.08
7182;BME280;3632;42.724;23.298;2023-03-13T04:39:11;95656.47;;;-0.55;69.11
7182;BME280;3632;42.724;23.298;2023-03-13T04:41:39;95958.72;;;0.93;68.03
7182;BME280;3632;42.724;23.298;2023-03-13T04:44:06;95859.22;;;1.43;68.22
7182;BME280;3632;42.724;23.298;2023-03-13T04:46:32;95826.72;;;1.13;69.26
7182;BME280;3632;42.724;23.298;2023-03-13T04:48:59;95914.50;;;1.66;69.90
7182;BME280;3632;42.724;23.298;2023-03-13T04:51:26;95367.16;;;-1.66;68.90
7182;BME280;3632;42.724;23.298;2023-03-13T04:53:53;95449.03;;;-1.75;67.57
7182;BME280;3632;42.724;23.298;2023-03-13T04:56:21;95910.13;;;1.72;68.08
7182;BME280;3632;42.724;23.298;2023-03-13T04:58:51;95783.78;;;0.96;67.66
7182;BME280;3632;42.724;23.298;2023-03-13T05:01:17;95915.66;;;1.82;67.68
7182;BME280;3632;42.724;23.298;2023-03-13T05:03:44;95182.47;;;-4.09;66.94
7182;BME280;3632;42.724;23.298;2023-03-13T05:06:11;95472.22;;;-1.13;67.05
7182;BME280;3632;42.724;23.298;2023-03-13T05:08:38;95904.31;;;1.95;66.58
7182;BME280;3632;42.724;23.298;2023-03-13T05:11:05;95858.53;;;1.62;65.99
7182;BME280;3632;42.724;23.298;2023-03-13T05:13:32;95831.59;;;1.43;65.33
7182;BME280;3632;42.724;23.298;2023-03-13T05:16:01;95928.25;;;2.05;65.70
7182;BME280;3632;42.724;23.298;2023-03-13T05:18:27;95934.22;;;2.03;66.62
7182;BME280;3632;42.724;23.298;2023-03-13T05:20:54;95800.34;;;1.26;67.01
7182;BME280;3632;42.724;23.298;2023-03-13T05:23:21;95953.03;;;2.16;67.04
7182;BME280;3632;42.724;23.298;2023-03-13T05:25:48;95340.06;;;-1.52;66.07
7182;BME280;3632;42.724;23.298;2023-03-13T05:28:15;95946.25;;;2.18;66.29
7182;BME280;3632;42.724;23.298;2023-03-13T05:30:41;95535.97;;;-0.43;66.69
7182;BME280;3632;42.724;23.298;2023-03-13T05:33:10;95863.44;;;1.41;66.79
7182;BME280;3632;42.724;23.298;2023-03-13T05:35:36;95470.38;;;-1.07;68.15
7182;BME280;3632;42.724;23.298;2023-03-13T05:38:03;95344.63;;;-2.21;67.59
7182;BME280;3632;42.724;23.298;2023-03-13T05:40:30;95954.47;;;1.98;67.38
7182;BME280;3632;42.724;23.298;2023-03-13T05:42:56;95911.00;;;1.20;67.36
7182;BME280;3632;42.724;23.298;2023-03-13T05:45:24;95954.75;;;1.91;68.42
7182;BME280;3632;42.724;23.298;2023-03-13T05:47:51;95961.97;;;2.00;68.60
7182;BME280;3632;42.724;23.298;2023-03-13T05:50:19;95958.09;;;2.14;68.13
7182;BME280;3632;42.724;23.298;2023-03-13T05:52:46;95959.38;;;2.26;67.26
7182;BME280;3632;42.724;23.298;2023-03-13T05:55:13;95886.81;;;1.92;66.48
7182;BME280;3632;42.724;23.298;2023-03-13T05:57:43;95964.50;;;2.46;66.61
7182;BME280;3632;42.724;23.298;2023-03-13T06:00:12;96122.41;;;2.64;66.31
7182;BME280;3632;42.724;23.298;2023-03-13T06:02:39;95981.09;;;2.75;66.07
7182;BME280;3632;42.724;23.298;2023-03-13T06:05:07;95974.66;;;2.90;65.83
7182;BME280;3632;42.724;23.298;2023-03-13T06:07:35;95972.59;;;3.01;64.67
7182;BME280;3632;42.724;23.298;2023-03-13T06:10:03;95969.13;;;3.03;63.55
7182;BME280;3632;42.724;23.298;2023-03-13T06:12:30;95839.50;;;1.57;63.25
7182;BME280;3632;42.724;23.298;2023-03-13T06:14:57;95964.50;;;3.14;62.53
7182;BME280;3632;42.724;23.298;2023-03-13T06:17:23;95945.34;;;2.67;63.26
7182;BME280;3632;42.724;23.298;2023-03-13T06:19:50;95974.25;;;2.79;63.03
7182;BME280;3632;42.724;23.298;2023-03-13T06:22:17;95974.47;;;2.96;62.43
7182;BME280;3632;42.724;23.298;2023-03-13T06:24:45;95878.06;;;2.49;62.06
7182;BME280;3632;42.724;23.298;2023-03-13T06:27:14;95976.84;;;2.99;62.27
7182;BME280;3632;42.724;23.298;2023-03-13T06:29:40;95972.31;;;2.85;62.90
7182;BME280;3632;42.724;23.298;2023-03-13T06:32:07;95955.50;;;3.09;61.99
7182;BME280;3632;42.724;23.298;2023-03-13T06:34:37;95172.97;;;-2.98;60.91
7182;BME280;3632;42.724;23.298;2023-03-13T06:37:04;95392.03;;;-0.08;61.32
7182;BME280;3632;42.724;23.298;2023-03-13T06:39:31;95955.50;;;3.31;59.86
7182;BME280;3632;42.724;23.298;2023-03-13T06:41:59;95469.50;;;-0.27;59.24
7182;BME280;3632;42.724;23.298;2023-03-13T06:44:26;95965.34;;;3.57;59.04
7182;BME280;3632;42.724;23.298;2023-03-13T06:46:53;95578.25;;;1.35;58.15
7182;BME280;3632;42.724;23.298;2023-03-13T06:49:20;95874.41;;;3.21;58.24
7182;BME280;3632;42.724;23.298;2023-03-13T06:51:46;95799.50;;;1.97;57.63
7182;BME280;3632;42.724;23.298;2023-03-13T06:54:13;95957.28;;;4.09;57.47
7182;BME280;3632;42.724;23.298;2023-03-13T06:56:40;95924.56;;;4.08;57.04
7182;BME280;3632;42.724;23.298;2023-03-13T06:59:08;95598.78;;;1.23;57.01
7182;BME280;3632;42.724;23.298;2023-03-13T07:01:35;95962.09;;;4.16;57.24
7182;BME280;3632;42.724;23.298;2023-03-13T07:04:02;95953.81;;;4.32;57.15
7182;BME280;3632;42.724;23.298;2023-03-13T07:06:28;95848.91;;;3.69;64.93
7182;BME280;3632;42.724;23.298;2023-03-13T07:08:55;95952.84;;;4.35;58.14
7182;BME280;3632;42.724;23.298;2023-03-13T07:11:22;95754.88;;;3.28;56.22
7182;BME280;3632;42.724;23.298;2023-03-13T07:13:53;95333.81;;;0.52;55.61
7182;BME280;3632;42.724;23.298;2023-03-13T07:16:21;95551.84;;;2.09;56.12
7182;BME280;3632;42.724;23.298;2023-03-13T07:18:49;95867.13;;;4.14;55.41
7182;BME280;3632;42.724;23.298;2023-03-13T07:21:16;95951.75;;;4.59;55.14
7182;BME280;3632;42.724;23.298;2023-03-13T07:23:43;96010.75;;;4.58;55.15
7182;BME280;3632;42.724;23.298;2023-03-13T07:26:11;95944.88;;;4.44;55.42
7182;BME280;3632;42.724;23.298;2023-03-13T07:28:38;95940.50;;;4.47;55.73
7182;BME280;3632;42.724;23.298;2023-03-13T07:31:07;95946.78;;;4.39;56.07
7182;BME280;3632;42.724;23.298;2023-03-13T07:33:36;95198.78;;;-1.12;56.20
7182;BME280;3632;42.724;23.298;2023-03-13T07:36:04;95500.22;;;2.02;55.27
7182;BME280;3632;42.724;23.298;2023-03-13T07:38:31;95386.31;;;1.41;55.18
7182;BME280;3632;42.724;23.298;2023-03-13T07:40:59;95587.81;;;2.51;56.63
7182;BME280;3632;42.724;23.298;2023-03-13T07:43:26;95948.91;;;5.04;55.74
7182;BME280;3632;42.724;23.298;2023-03-13T07:45:55;95755.84;;;3.64;55.74
7182;BME280;3632;42.724;23.298;2023-03-13T07:48:23;95815.56;;;4.01;56.74
7182;BME280;3632;42.724;23.298;2023-03-13T07:50:53;95998.19;;;4.94;55.43
7182;BME280;3632;42.724;23.298;2023-03-13T07:53:20;95870.69;;;4.84;55.67
7182;BME280;3632;42.724;23.298;2023-03-13T07:55:55;95931.31;;;5.20;57.82
7182;BME280;3632;42.724;23.298;2023-03-13T07:58:23;95568.53;;;3.09;56.75
7182;BME280;3632;42.724;23.298;2023-03-13T08:00:50;95947.59;;;5.31;56.09
7182;BME280;3632;42.724;23.298;2023-03-13T08:03:17;95515.69;;;2.89;54.98
7182;BME280;3632;42.724;23.298;2023-03-13T08:05:44;95914.56;;;5.87;55.21
7182;BME280;3632;42.724;23.298;2023-03-13T08:08:12;95925.34;;;6.08;53.47
7182;BME280;3632;42.724;23.298;2023-03-13T08:10:39;95915.22;;;6.08;52.74
7182;BME280;3632;42.724;23.298;2023-03-13T08:13:06;95921.97;;;6.08;52.53
7182;BME280;3632;42.724;23.298;2023-03-13T08:15:33;95920.78;;;6.15;52.18
7182;BME280;3632;42.724;23.298;2023-03-13T08:17:59;95940.03;;;5.48;51.04
7182;BME280;3632;42.724;23.298;2023-03-13T08:20:26;95923.88;;;6.20;51.55
7182;BME280;3632;42.724;23.298;2023-03-13T08:22:54;95836.47;;;5.64;51.13
7182;BME280;3632;42.724;23.298;2023-03-13T08:25:22;95917.47;;;6.30;50.65
7182;BME280;3632;42.724;23.298;2023-03-13T08:27:49;95837.56;;;5.76;50.96
7182;BME280;3632;42.724;23.298;2023-03-13T08:30:16;95926.31;;;6.38;51.25
7182;BME280;3632;42.724;23.298;2023-03-13T08:32:43;95929.69;;;6.55;51.20
7182;BME280;3632;42.724;23.298;2023-03-13T08:35:10;95918.53;;;6.74;51.19
7182;BME280;3632;42.724;23.298;2023-03-13T08:37:37;95926.53;;;6.98;50.05
7182;BME280;3632;42.724;23.298;2023-03-13T08:40:04;95599.78;;;4.97;50.92
7182;BME280;3632;42.724;23.298;2023-03-13T08:42:37;95800.94;;;6.16;50.90
7182;BME280;3632;42.724;23.298;2023-03-13T08:45:05;95918.94;;;6.82;49.84
7182;BME280;3632;42.724;23.298;2023-03-13T08:47:33;95480.53;;;4.11;50.17
7182;BME280;3632;42.724;23.298;2023-03-13T08:50:00;95913.03;;;6.98;50.47
7182;BME280;3632;42.724;23.298;2023-03-13T08:52:27;95801.09;;;6.13;49.59
7182;BME280;3632;42.724;23.298;2023-03-13T08:54:54;95909.19;;;7.06;49.03
7182;BME280;3632;42.724;23.298;2023-03-13T08:57:20;95917.75;;;7.19;48.95
7182;BME280;3632;42.724;23.298;2023-03-13T08:59:49;95918.53;;;7.35;48.28
7182;BME280;3632;42.724;23.298;2023-03-13T09:02:16;95916.09;;;7.64;47.95
7182;BME280;3632;42.724;23.298;2023-03-13T09:04:45;95851.72;;;7.37;47.58
7182;BME280;3632;42.724;23.298;2023-03-13T09:07:12;95910.19;;;7.93;47.74
7182;BME280;3632;42.724;23.298;2023-03-13T09:09:40;95244.72;;;3.55;46.88
7182;BME280;3632;42.724;23.298;2023-03-13T09:12:07;95763.75;;;7.23;47.48
7182;BME280;3632;42.724;23.298;2023-03-13T09:14:34;95888.81;;;8.11;47.38
7182;BME280;3632;42.724;23.298;2023-03-13T09:17:02;95774.78;;;7.22;46.60
7182;BME280;3632;42.724;23.298;2023-03-13T09:19:29;95902.28;;;8.83;45.53
7182;BME280;3632;42.724;23.298;2023-03-13T09:22:02;94917.00;;;2.83;45.78
7182;BME280;3632;42.724;23.298;2023-03-13T09:24:29;95886.34;;;9.07;45.85
7182;BME280;3632;42.724;23.298;2023-03-13T09:26:55;95240.09;;;5.16;44.93
7182;BME280;3632;42.724;23.298;2023-03-13T09:29:22;95273.72;;;5.02;45.38
7182;BME280;3632;42.724;23.298;2023-03-13T09:31:49;95399.75;;;5.66;45.27
7182;BME280;3632;42.724;23.298;2023-03-13T09:34:17;95504.44;;;6.80;45.85
7182;BME280;3632;42.724;23.298;2023-03-13T09:36:44;95893.88;;;10.13;45.15
7182;BME280;3632;42.724;23.298;2023-03-13T09:39:11;95691.13;;;8.19;45.17
7182;BME280;3632;42.724;23.298;2023-03-13T09:41:41;95887.16;;;10.50;44.77
7182;BME280;3632;42.724;23.298;2023-03-13T09:44:13;95883.22;;;10.70;45.11
7182;BME280;3632;42.724;23.298;2023-03-13T09:46:47;95871.19;;;10.72;42.99
7182;BME280;3632;42.724;23.298;2023-03-13T09:49:26;95877.94;;;10.73;43.69
7182;BME280;3632;42.724;23.298;2023-03-13T09:51:59;95862.75;;;10.95;44.14
7182;BME280;3632;42.724;23.298;2023-03-13T09:54:36;95421.66;;;7.73;44.05
7182;BME280;3632;42.724;23.298;2023-03-13T09:57:11;95582.78;;;9.46;43.25
7182;BME280;3632;42.724;23.298;2023-03-13T09:59:44;95869.31;;;11.69;42.61
7182;BME280;3632;42.724;23.298;2023-03-13T10:02:30;95874.66;;;12.01;41.42
7182;BME280;3632;42.724;23.298;2023-03-13T10:05:04;95781.28;;;11.39;40.23
7182;BME280;3632;42.724;23.298;2023-03-13T10:07:33;95862.56;;;12.14;39.22
7182;BME280;3632;42.724;23.298;2023-03-13T10:10:00;95376.63;;;9.00;39.54
7182;BME280;3632;42.724;23.298;2023-03-13T10:12:28;95855.50;;;12.40;38.98
7182;BME280;3632;42.724;23.298;2023-03-13T10:15:06;95844.69;;;12.58;38.80
7182;BME280;3632;42.724;23.298;2023-03-13T10:17:43;95833.47;;;12.81;38.64
7182;BME280;3632;42.724;23.298;2023-03-13T10:20:20;95741.63;;;12.47;38.40
7182;BME280;3632;42.724;23.298;2023-03-13T10:22:50;95829.56;;;13.09;38.20
7182;BME280;3632;42.724;23.298;2023-03-13T10:25:27;95825.59;;;13.27;37.85
7182;BME280;3632;42.724;23.298;2023-03-13T10:27:55;95819.03;;;13.35;37.19
7182;BME280;3632;42.724;23.298;2023-03-13T10:30:24;95747.31;;;12.82;37.88
7182;BME280;3632;42.724;23.298;2023-03-13T10:32:58;95819.56;;;13.49;37.75
7182;BME280;3632;42.724;23.298;2023-03-13T10:35:32;95551.72;;;12.03;37.07
7182;BME280;3632;42.724;23.298;2023-03-13T10:38:03;95451.00;;;11.53;36.74
7182;BME280;3632;42.724;23.298;2023-03-13T10:40:31;95612.81;;;12.27;36.16
7182;BME280;3632;42.724;23.298;2023-03-13T10:43:03;95780.78;;;13.84;35.99
7182;BME280;3632;42.724;23.298;2023-03-13T10:45:33;95728.84;;;13.82;35.23
7182;BME280;3632;42.724;23.298;2023-03-13T10:48:03;95327.50;;;11.13;35.57
7182;BME280;3632;42.724;23.298;2023-03-13T10:50:41;95534.91;;;12.63;35.42
7182;BME280;3632;42.724;23.298;2023-03-13T10:53:22;95662.91;;;13.84;35.59
7182;BME280;3632;42.724;23.298;2023-03-13T10:55:52;95521.00;;;12.35;34.74
7182;BME280;3632;42.724;23.298;2023-03-13T10:58:22;95757.19;;;14.21;35.17
7182;BME280;3632;42.724;23.298;2023-03-13T11:01:09;95767.88;;;14.94;35.22
7182;BME280;3632;42.724;23.298;2023-03-13T11:03:39;95746.81;;;15.00;35.20
7182;BME280;3632;42.724;23.298;2023-03-13T11:06:22;95583.78;;;14.10;35.03
7182;BME280;3632;42.724;23.298;2023-03-13T11:08:57;95351.88;;;12.60;35.84
7182;BME280;3632;42.724;23.298;2023-03-13T11:11:24;95655.97;;;15.21;34.66
7182;BME280;3632;42.724;23.298;2023-03-13T11:14:06;95249.22;;;12.84;33.63
7182;BME280;3632;42.724;23.298;2023-03-13T11:16:37;95734.31;;;16.00;33.50
7182;BME280;3632;42.724;23.298;2023-03-13T11:19:28;95743.72;;;16.19;32.89
7182;BME280;3632;42.724;23.298;2023-03-13T11:22:06;95742.41;;;16.42;32.79
7182;BME280;3632;42.724;23.298;2023-03-13T11:24:42;95730.09;;;16.63;33.93
7182;BME280;3632;42.724;23.298;2023-03-13T11:27:18;95307.00;;;14.00;33.85
7182;BME280;3632;42.724;23.298;2023-03-13T11:29:57;95458.66;;;15.26;34.49
7182;BME280;3632;42.724;23.298;2023-03-13T11:32:30;95109.97;;;13.52;34.45
7182;BME280;3632;42.724;23.298;2023-03-13T11:35:01;95499.44;;;15.29;33.01
7182;BME280;3632;42.724;23.298;2023-03-13T11:37:32;95227.03;;;13.13;33.81
7182;BME280;3632;42.724;23.298;2023-03-13T11:40:11;95324.66;;;14.77;33.78
7182;BME280;3632;42.724;23.298;2023-03-13T11:45:52;95635.91;;;17.14;31.85
7182;BME280;3632;42.724;23.298;2023-03-13T11:48:36;95363.47;;;16.24;31.46
7182;BME280;3632;42.724;23.298;2023-03-13T11:51:10;95290.94;;;15.61;31.67
7182;BME280;3632;42.724;23.298;2023-03-13T11:53:58;95682.09;;;18.51;41.36
7182;BME280;3632;42.724;23.298;2023-03-13T11:56:34;95682.06;;;19.01;36.06
7182;BME280;3632;42.724;23.298;2023-03-13T11:59:16;95676.53;;;19.20;36.39
7182;BME280;3632;42.724;23.298;2023-03-13T12:01:49;95661.06;;;18.80;34.32
7182;BME280;3632;42.724;23.298;2023-03-13T12:04:22;95675.75;;;18.71;34.66
7182;BME280;3632;42.724;23.298;2023-03-13T12:06:53;95613.19;;;18.19;34.47
7182;BME280;3632;42.724;23.298;2023-03-13T12:09:26;95688.41;;;18.48;35.27
7182;BME280;3632;42.724;23.298;2023-03-13T12:11:58;95678.13;;;18.56;34.10
7182;BME280;3632;42.724;23.298;2023-03-13T12:14:30;95643.94;;;18.70;34.80
7182;BME280;3632;42.724;23.298;2023-03-13T12:17:05;95638.44;;;18.82;34.93
7182;BME280;3632;42.724;23.298;2023-03-13T12:19:41;95641.38;;;18.87;33.25
7182;BME280;3632;42.724;23.298;2023-03-13T12:22:14;95635.53;;;18.68;35.13
7182;BME280;3632;42.724;23.298;2023-03-13T12:24:51;95638.44;;;18.82;33.91
7182;BME280;3632;42.724;23.298;2023-03-13T12:27:25;95641.69;;;19.00;34.76
7182;BME280;3632;42.724;23.298;2023-03-13T12:30:00;95642.56;;;19.39;33.25
7182;BME280;3632;42.724;23.298;2023-03-13T12:32:35;95639.84;;;19.49;33.60
7182;BME280;3632;42.724;23.298;2023-03-13T12:35:07;95624.91;;;19.75;32.25
7182;BME280;3632;42.724;23.298;2023-03-13T12:37:45;95609.34;;;19.20;31.01
7182;BME280;3632;42.724;23.298;2023-03-13T12:40:22;95526.75;;;18.39;31.25
7182;BME280;3632;42.724;23.298;2023-03-13T12:42:56;95633.59;;;19.03;33.60
7182;BME280;3632;42.724;23.298;2023-03-13T12:45:25;95627.31;;;18.81;33.78
7182;BME280;3632;42.724;23.298;2023-03-13T12:51:22;95528.28;;;19.21;32.11
7182;BME280;3632;42.724;23.298;2023-03-13T12:57:15;95649.03;;;19.68;31.31
7182;BME280;3632;42.724;23.298;2023-03-13T12:59:46;95623.56;;;19.87;31.66
7182;BME280;3632;42.724;23.298;2023-03-13T13:02:19;95627.19;;;20.40;32.33
7182;BME280;3632;42.724;23.298;2023-03-13T13:04:48;95613.97;;;20.58;31.66
7182;BME280;3632;42.724;23.298;2023-03-13T13:07:23;95631.63;;;20.77;30.87
7182;BME280;3632;42.724;23.298;2023-03-13T13:10:15;95618.97;;;21.19;31.00
7182;BME280;3632;42.724;23.298;2023-03-13T13:12:45;95624.00;;;21.21;31.08
7182;BME280;3632;42.724;23.298;2023-03-13T13:15:18;95626.06;;;21.25;28.35
7182;BME280;3632;42.724;23.298;2023-03-13T13:18:12;95626.97;;;21.32;29.42
7182;BME280;3632;42.724;23.298;2023-03-13T13:20:46;95551.94;;;21.16;28.71
7182;BME280;3632;42.724;23.298;2023-03-13T13:23:30;95616.59;;;21.62;28.30
7182;BME280;3632;42.724;23.298;2023-03-13T13:35:28;95595.81;;;20.80;29.32
7182;BME280;3632;42.724;23.298;2023-03-13T13:38:32;95596.47;;;20.60;29.70
7182;BME280;3632;42.724;23.298;2023-03-13T13:41:22;95563.66;;;20.52;29.60
7182;BME280;3632;42.724;23.298;2023-03-13T13:44:21;95595.19;;;21.16;29.25
7182;BME280;3632;42.724;23.298;2023-03-13T13:46:48;95523.88;;;20.68;29.93
7182;BME280;3632;42.724;23.298;2023-03-13T13:49:17;95594.47;;;20.84;27.31
7182;BME280;3632;42.724;23.298;2023-03-13T13:54:59;95546.41;;;19.91;28.07